sensor_id;sensor_type;location;lat;lon;timestamp;pressure;altitude;pressure_sealevel;temperature;humidity
16664;BME280;8445;51.270;9.434;2022-12-29T00:01:53;98458.16;;;8.20;75.73
16664;BME280;8445;51.270;9.434;2022-12-29T00:04:18;98467.47;;;8.24;75.42
16664;BME280;8445;51.270;9.434;2022-12-29T00:06:44;98464.00;;;8.23;76.48
16664;BME280;8445;51.270;9.434;2022-12-29T00:09:12;98461.44;;;8.33;76.16
16664;BME280;8445;51.270;9.434;2022-12-29T00:11:38;98452.78;;;8.42;76.22
16664;BME280;8445;51.270;9.434;2022-12-29T00:14:03;98473.16;;;8.52;76.13
16664;BME280;8445;51.270;9.434;2022-12-29T00:16:47;98465.72;;;8.57;75.88
16664;BME280;8445;51.270;9.434;2022-12-29T00:19:13;98464.94;;;8.66;76.49
16664;BME280;8445;51.270;9.434;2022-12-29T00:22:00;98465.50;;;8.70;76.09
16664;BME280;8445;51.270;9.434;2022-12-29T00:24:44;98469.22;;;8.79;75.31
16664;BME280;8445;51.270;9.434;2022-12-29T00:27:19;98469.53;;;8.85;75.89
16664;BME280;8445;51.270;9.434;2022-12-29T00:30:18;98476.66;;;8.95;75.80
16664;BME280;8445;51.270;9.434;2022-12-29T00:33:13;98473.78;;;8.98;76.17
16664;BME280;8445;51.270;9.434;2022-12-29T00:38:25;98471.63;;;9.13;75.82
16664;BME280;8445;51.270;9.434;2022-12-29T00:41:10;98471.38;;;9.16;75.96
16664;BME280;8445;51.270;9.434;2022-12-29T00:44:01;98470.47;;;9.27;75.60
16664;BME280;8445;51.270;9.434;2022-12-29T00:46:31;98475.72;;;9.27;75.92
16664;BME280;8445;51.270;9.434;2022-12-29T00:48:56;98462.00;;;9.33;75.82
16664;BME280;8445;51.270;9.434;2022-12-29T00:51:43;98452.31;;;9.33;75.58
16664;BME280;8445;51.270;9.434;2022-12-29T00:54:09;98454.69;;;9.37;75.61
16664;BME280;8445;51.270;9.434;2022-12-29T00:56:35;98444.84;;;9.39;75.90
16664;BME280;8445;51.270;9.434;2022-12-29T00:59:01;98457.19;;;9.38;76.00
16664;BME280;8445;51.270;9.434;2022-12-29T01:01:27;98446.38;;;9.41;76.14
16664;BME280;8445;51.270;9.434;2022-12-29T01:03:55;98455.81;;;9.44;75.76
16664;BME280;8445;51.270;9.434;2022-12-29T01:06:23;98446.91;;;9.45;76.00
16664;BME280;8445;51.270;9.434;2022-12-29T01:08:49;98438.72;;;9.48;75.73
16664;BME280;8445;51.270;9.434;2022-12-29T01:11:38;98441.53;;;9.46;75.88
16664;BME280;8445;51.270;9.434;2022-12-29T01:14:05;98439.19;;;9.53;75.96
16664;BME280;8445;51.270;9.434;2022-12-29T01:16:31;98431.84;;;9.57;76.15
16664;BME280;8445;51.270;9.434;2022-12-29T01:18:57;98432.81;;;9.56;76.67
16664;BME280;8445;51.270;9.434;2022-12-29T01:21:23;98436.00;;;9.59;76.16
16664;BME280;8445;51.270;9.434;2022-12-29T01:23:50;98424.34;;;9.62;75.81
16664;BME280;8445;51.270;9.434;2022-12-29T01:26:16;98418.81;;;9.65;76.05
16664;BME280;8445;51.270;9.434;2022-12-29T01:28:42;98419.63;;;9.66;76.19
16664;BME280;8445;51.270;9.434;2022-12-29T01:31:15;98403.66;;;9.67;76.26
16664;BME280;8445;51.270;9.434;2022-12-29T01:33:41;98392.94;;;9.69;76.41
16664;BME280;8445;51.270;9.434;2022-12-29T01:36:09;98386.00;;;9.68;76.45
16664;BME280;8445;51.270;9.434;2022-12-29T01:38:36;98386.44;;;9.73;76.24
16664;BME280;8445;51.270;9.434;2022-12-29T01:41:02;98383.78;;;9.73;76.28
16664;BME280;8445;51.270;9.434;2022-12-29T01:43:45;98390.03;;;9.72;76.52
16664;BME280;8445;51.270;9.434;2022-12-29T01:48:42;98404.38;;;9.79;76.23
16664;BME280;8445;51.270;9.434;2022-12-29T01:51:08;98407.72;;;9.81;76.23
16664;BME280;8445;51.270;9.434;2022-12-29T01:53:36;98405.78;;;9.83;76.36
16664;BME280;8445;51.270;9.434;2022-12-29T01:56:04;98404.66;;;9.86;76.43
16664;BME280;8445;51.270;9.434;2022-12-29T01:58:35;98407.03;;;9.89;76.30
16664;BME280;8445;51.270;9.434;2022-12-29T02:01:04;98391.75;;;9.92;76.40
16664;BME280;8445;51.270;9.434;2022-12-29T02:03:30;98406.38;;;9.97;76.29
16664;BME280;8445;51.270;9.434;2022-12-29T02:06:11;98395.53;;;10.00;75.97
16664;BME280;8445;51.270;9.434;2022-12-29T02:08:40;98389.38;;;9.99;76.34
16664;BME280;8445;51.270;9.434;2022-12-29T02:11:07;98391.91;;;10.01;76.05
16664;BME280;8445;51.270;9.434;2022-12-29T02:13:33;98388.00;;;10.05;76.07
16664;BME280;8445;51.270;9.434;2022-12-29T02:32:36;98369.66;;;10.13;76.11
16664;BME280;8445;51.270;9.434;2022-12-29T02:35:13;98376.88;;;10.11;76.23
16664;BME280;8445;51.270;9.434;2022-12-29T02:38:06;98366.72;;;10.16;76.20
16664;BME280;8445;51.270;9.434;2022-12-29T02:46:09;98353.66;;;10.15;76.64
16664;BME280;8445;51.270;9.434;2022-12-29T02:48:55;98344.34;;;10.20;76.39
16664;BME280;8445;51.270;9.434;2022-12-29T02:51:36;98355.88;;;10.19;76.36
16664;BME280;8445;51.270;9.434;2022-12-29T02:54:04;98345.59;;;10.16;76.30
16664;BME280;8445;51.270;9.434;2022-12-29T02:56:48;98344.06;;;10.14;76.35
16664;BME280;8445;51.270;9.434;2022-12-29T02:59:16;98340.31;;;10.16;76.62
16664;BME280;8445;51.270;9.434;2022-12-29T03:13:28;98318.19;;;9.78;76.62
16664;BME280;8445;51.270;9.434;2022-12-29T03:16:32;98318.47;;;9.65;77.87
16664;BME280;8445;51.270;9.434;2022-12-29T03:19:10;98309.28;;;9.59;77.17
16664;BME280;8445;51.270;9.434;2022-12-29T03:21:44;98299.84;;;9.57;77.25
16664;BME280;8445;51.270;9.434;2022-12-29T03:24:40;98310.38;;;9.57;76.82
16664;BME280;8445;51.270;9.434;2022-12-29T03:27:10;98313.16;;;9.55;76.42
16664;BME280;8445;51.270;9.434;2022-12-29T03:29:42;98319.66;;;9.51;76.65
16664;BME280;8445;51.270;9.434;2022-12-29T03:32:11;98321.75;;;9.47;77.05
16664;BME280;8445;51.270;9.434;2022-12-29T03:34:41;98331.19;;;9.50;76.96
16664;BME280;8445;51.270;9.434;2022-12-29T03:37:12;98322.59;;;9.48;77.74
16664;BME280;8445;51.270;9.434;2022-12-29T03:39:39;98320.09;;;9.46;77.10
16664;BME280;8445;51.270;9.434;2022-12-29T03:42:09;98326.47;;;9.44;76.51
16664;BME280;8445;51.270;9.434;2022-12-29T03:44:38;98319.22;;;9.36;76.63
16664;BME280;8445;51.270;9.434;2022-12-29T03:47:05;98317.00;;;9.31;76.64
16664;BME280;8445;51.270;9.434;2022-12-29T03:49:31;98313.66;;;9.29;77.13
16664;BME280;8445;51.270;9.434;2022-12-29T03:51:57;98318.09;;;9.29;77.24
16664;BME280;8445;51.270;9.434;2022-12-29T03:54:23;98304.09;;;9.38;77.57
16664;BME280;8445;51.270;9.434;2022-12-29T03:56:48;98310.09;;;9.50;77.27
16664;BME280;8445;51.270;9.434;2022-12-29T03:59:18;98318.44;;;9.55;77.46
16664;BME280;8445;51.270;9.434;2022-12-29T04:01:44;98308.72;;;9.66;77.11
16664;BME280;8445;51.270;9.434;2022-12-29T04:04:09;98309.00;;;9.72;77.16
16664;BME280;8445;51.270;9.434;2022-12-29T04:06:35;98318.75;;;9.82;77.19
16664;BME280;8445;51.270;9.434;2022-12-29T04:09:04;98307.91;;;9.85;76.97
16664;BME280;8445;51.270;9.434;2022-12-29T04:11:36;98307.34;;;9.91;77.49
16664;BME280;8445;51.270;9.434;2022-12-29T04:14:03;98289.16;;;9.98;77.39
16664;BME280;8445;51.270;9.434;2022-12-29T04:16:30;98303.84;;;10.10;77.85
16664;BME280;8445;51.270;9.434;2022-12-29T04:18:55;98285.50;;;10.18;77.50
16664;BME280;8445;51.270;9.434;2022-12-29T04:21:21;98295.66;;;10.23;77.44
16664;BME280;8445;51.270;9.434;2022-12-29T04:23:47;98299.69;;;10.27;77.52
16664;BME280;8445;51.270;9.434;2022-12-29T04:26:14;98293.28;;;10.30;77.52
16664;BME280;8445;51.270;9.434;2022-12-29T04:28:58;98296.47;;;10.23;78.45
16664;BME280;8445;51.270;9.434;2022-12-29T04:31:44;98288.13;;;10.18;78.33
16664;BME280;8445;51.270;9.434;2022-12-29T04:34:10;98286.06;;;10.12;79.13
16664;BME280;8445;51.270;9.434;2022-12-29T04:36:37;98283.97;;;10.16;78.12
16664;BME280;8445;51.270;9.434;2022-12-29T04:39:05;98298.28;;;10.13;78.54
16664;BME280;8445;51.270;9.434;2022-12-29T04:41:32;98307.06;;;10.14;78.31
16664;BME280;8445;51.270;9.434;2022-12-29T04:43:58;98301.63;;;10.15;78.20
16664;BME280;8445;51.270;9.434;2022-12-29T04:46:52;98290.94;;;10.17;78.72
16664;BME280;8445;51.270;9.434;2022-12-29T04:49:34;98296.91;;;10.19;78.61
16664;BME280;8445;51.270;9.434;2022-12-29T04:52:09;98307.59;;;10.17;78.71
16664;BME280;8445;51.270;9.434;2022-12-29T04:54:36;98302.47;;;10.16;79.07
16664;BME280;8445;51.270;9.434;2022-12-29T04:57:09;98295.38;;;10.16;79.15
16664;BME280;8445;51.270;9.434;2022-12-29T04:59:37;98296.34;;;10.15;79.50
16664;BME280;8445;51.270;9.434;2022-12-29T05:02:03;98293.16;;;10.12;79.87
16664;BME280;8445;51.270;9.434;2022-12-29T05:04:30;98290.66;;;10.10;80.02
16664;BME280;8445;51.270;9.434;2022-12-29T05:06:56;98288.16;;;10.08;80.29
16664;BME280;8445;51.270;9.434;2022-12-29T05:09:21;98288.00;;;10.10;79.91
16664;BME280;8445;51.270;9.434;2022-12-29T05:11:49;98288.28;;;10.07;79.89
16664;BME280;8445;51.270;9.434;2022-12-29T05:14:14;98285.63;;;10.07;80.29
16664;BME280;8445;51.270;9.434;2022-12-29T05:16:40;98282.72;;;10.10;80.08
16664;BME280;8445;51.270;9.434;2022-12-29T05:19:05;98280.06;;;10.10;80.84
16664;BME280;8445;51.270;9.434;2022-12-29T05:21:31;98271.88;;;10.13;80.21
16664;BME280;8445;51.270;9.434;2022-12-29T05:23:58;98283.97;;;10.16;80.56
16664;BME280;8445;51.270;9.434;2022-12-29T05:26:23;98264.34;;;10.18;80.64
16664;BME280;8445;51.270;9.434;2022-12-29T05:29:11;98285.78;;;10.25;80.48
16664;BME280;8445;51.270;9.434;2022-12-29T05:31:37;98275.63;;;10.30;80.22
16664;BME280;8445;51.270;9.434;2022-12-29T05:34:04;98282.25;;;10.34;80.46
16664;BME280;8445;51.270;9.434;2022-12-29T05:36:30;98280.19;;;10.38;80.59
16664;BME280;8445;51.270;9.434;2022-12-29T05:38:58;98281.72;;;10.41;80.58
16664;BME280;8445;51.270;9.434;2022-12-29T05:41:24;98282.28;;;10.44;80.58
16664;BME280;8445;51.270;9.434;2022-12-29T05:43:58;98277.81;;;10.45;80.69
16664;BME280;8445;51.270;9.434;2022-12-29T05:46:52;98288.97;;;10.48;80.09
16664;BME280;8445;51.270;9.434;2022-12-29T05:49:41;98295.78;;;10.41;80.70
16664;BME280;8445;51.270;9.434;2022-12-29T05:52:11;98280.91;;;10.40;80.38
16664;BME280;8445;51.270;9.434;2022-12-29T05:54:36;98268.34;;;10.32;81.85
16664;BME280;8445;51.270;9.434;2022-12-29T05:57:08;98263.38;;;10.29;81.27
16664;BME280;8445;51.270;9.434;2022-12-29T05:59:33;98257.81;;;10.22;81.53
16664;BME280;8445;51.270;9.434;2022-12-29T06:02:00;98248.09;;;10.13;82.56
16664;BME280;8445;51.270;9.434;2022-12-29T06:04:25;98246.13;;;10.15;81.85
16664;BME280;8445;51.270;9.434;2022-12-29T06:06:51;98245.88;;;10.08;81.37
16664;BME280;8445;51.270;9.434;2022-12-29T06:09:33;98262.72;;;9.98;81.21
16664;BME280;8445;51.270;9.434;2022-12-29T06:11:59;98259.53;;;9.94;81.39
16664;BME280;8445;51.270;9.434;2022-12-29T06:14:25;98267.59;;;9.92;82.54
16664;BME280;8445;51.270;9.434;2022-12-29T06:16:50;98248.41;;;10.00;81.51
16664;BME280;8445;51.270;9.434;2022-12-29T06:19:16;98252.28;;;10.06;81.30
16664;BME280;8445;51.270;9.434;2022-12-29T06:21:41;98274.78;;;10.10;81.30
16664;BME280;8445;51.270;9.434;2022-12-29T06:24:08;98286.06;;;10.12;82.13
16664;BME280;8445;51.270;9.434;2022-12-29T06:26:35;98284.97;;;10.15;82.37
16664;BME280;8445;51.270;9.434;2022-12-29T06:29:02;98277.56;;;10.18;82.23
16664;BME280;8445;51.270;9.434;2022-12-29T06:31:28;98288.13;;;10.18;83.04
16664;BME280;8445;51.270;9.434;2022-12-29T06:33:53;98286.34;;;10.19;83.09
16664;BME280;8445;51.270;9.434;2022-12-29T06:36:19;98304.56;;;10.22;82.42
16664;BME280;8445;51.270;9.434;2022-12-29T06:38:44;98290.22;;;10.24;82.27
16664;BME280;8445;51.270;9.434;2022-12-29T06:41:10;98293.16;;;10.21;82.90
16664;BME280;8445;51.270;9.434;2022-12-29T06:44:01;98302.75;;;10.22;82.23
16664;BME280;8445;51.270;9.434;2022-12-29T06:46:56;98298.00;;;10.16;82.41
16664;BME280;8445;51.270;9.434;2022-12-29T06:49:22;98306.09;;;10.15;82.35
16664;BME280;8445;51.270;9.434;2022-12-29T06:51:48;98289.69;;;10.11;82.64
16664;BME280;8445;51.270;9.434;2022-12-29T06:54:13;98293.97;;;10.12;82.36
16664;BME280;8445;51.270;9.434;2022-12-29T06:56:38;98290.09;;;10.06;83.32
16664;BME280;8445;51.270;9.434;2022-12-29T06:59:04;98285.38;;;10.10;83.50
16664;BME280;8445;51.270;9.434;2022-12-29T07:01:30;98294.81;;;10.03;83.61
16664;BME280;8445;51.270;9.434;2022-12-29T07:03:55;98294.81;;;10.03;83.40
16664;BME280;8445;51.270;9.434;2022-12-29T07:06:21;98298.59;;;10.00;84.18
16664;BME280;8445;51.270;9.434;2022-12-29T07:08:47;98298.75;;;9.99;83.46
16664;BME280;8445;51.270;9.434;2022-12-29T07:11:12;98293.47;;;9.99;83.01
16664;BME280;8445;51.270;9.434;2022-12-29T07:13:38;98293.88;;;9.94;83.72
16664;BME280;8445;51.270;9.434;2022-12-29T07:16:09;98297.34;;;9.94;85.04
16664;BME280;8445;51.270;9.434;2022-12-29T07:18:35;98301.78;;;9.94;83.48
16664;BME280;8445;51.270;9.434;2022-12-29T07:21:01;98292.06;;;9.94;83.19
16664;BME280;8445;51.270;9.434;2022-12-29T07:23:27;98292.06;;;9.94;84.19
16664;BME280;8445;51.270;9.434;2022-12-29T07:26:04;98292.75;;;9.97;83.62
16664;BME280;8445;51.270;9.434;2022-12-29T07:28:30;98286.78;;;9.94;83.72
16664;BME280;8445;51.270;9.434;2022-12-29T07:30:56;98297.34;;;9.94;83.24
16664;BME280;8445;51.270;9.434;2022-12-29T07:33:21;98290.13;;;9.97;83.67
16664;BME280;8445;51.270;9.434;2022-12-29T07:35:47;98286.50;;;9.98;83.38
16664;BME280;8445;51.270;9.434;2022-12-29T07:38:12;98290.81;;;9.99;83.74
16664;BME280;8445;51.270;9.434;2022-12-29T07:40:38;98294.81;;;10.03;84.27
16664;BME280;8445;51.270;9.434;2022-12-29T07:43:03;98299.81;;;10.06;83.77
16664;BME280;8445;51.270;9.434;2022-12-29T07:45:35;98306.25;;;10.03;83.96
16664;BME280;8445;51.270;9.434;2022-12-29T07:48:09;98301.94;;;10.02;84.98
16664;BME280;8445;51.270;9.434;2022-12-29T07:50:35;98299.28;;;10.02;84.75
16664;BME280;8445;51.270;9.434;2022-12-29T07:53:01;98293.03;;;10.03;84.48
16664;BME280;8445;51.270;9.434;2022-12-29T07:55:27;98294.53;;;10.06;84.33
16664;BME280;8445;51.270;9.434;2022-12-29T07:57:53;98287.59;;;10.05;84.41
16664;BME280;8445;51.270;9.434;2022-12-29T08:00:19;98292.59;;;10.08;84.00
16664;BME280;8445;51.270;9.434;2022-12-29T08:02:45;98290.09;;;10.06;85.91
16664;BME280;8445;51.270;9.434;2022-12-29T08:05:10;98294.25;;;10.09;84.53
16664;BME280;8445;51.270;9.434;2022-12-29T08:07:36;98283.69;;;10.09;85.17
16664;BME280;8445;51.270;9.434;2022-12-29T08:10:02;98292.47;;;10.09;84.69
16664;BME280;8445;51.270;9.434;2022-12-29T08:12:28;98293.97;;;10.12;84.47
16664;BME280;8445;51.270;9.434;2022-12-29T08:14:54;98298.28;;;10.13;84.98
16664;BME280;8445;51.270;9.434;2022-12-29T08:17:19;98291.75;;;10.17;84.84
16664;BME280;8445;51.270;9.434;2022-12-29T08:19:45;98300.66;;;10.16;85.49
16664;BME280;8445;51.270;9.434;2022-12-29T08:22:11;98301.22;;;10.20;85.30
16664;BME280;8445;51.270;9.434;2022-12-29T08:24:36;98290.50;;;10.21;85.50
16664;BME280;8445;51.270;9.434;2022-12-29T08:27:02;98307.34;;;10.20;85.93
16664;BME280;8445;51.270;9.434;2022-12-29T08:29:27;98307.91;;;10.24;84.96
16664;BME280;8445;51.270;9.434;2022-12-29T08:31:52;98309.00;;;10.21;85.14
16664;BME280;8445;51.270;9.434;2022-12-29T08:34:18;98305.38;;;10.22;85.07
16664;BME280;8445;51.270;9.434;2022-12-29T08:36:43;98320.53;;;10.20;85.89
16664;BME280;8445;51.270;9.434;2022-12-29T08:39:09;98322.38;;;10.20;86.10
16664;BME280;8445;51.270;9.434;2022-12-29T08:41:34;98323.19;;;10.20;85.72
16664;BME280;8445;51.270;9.434;2022-12-29T08:44:00;98326.81;;;10.19;86.73
16664;BME280;8445;51.270;9.434;2022-12-29T08:46:25;98322.09;;;10.23;85.96
16664;BME280;8445;51.270;9.434;2022-12-29T08:48:51;98324.16;;;10.19;86.88
16664;BME280;8445;51.270;9.434;2022-12-29T08:51:16;98330.16;;;10.21;86.60
16664;BME280;8445;51.270;9.434;2022-12-29T08:53:42;98332.66;;;10.23;86.06
16664;BME280;8445;51.270;9.434;2022-12-29T08:56:08;98338.50;;;10.27;86.54
16664;BME280;8445;51.270;9.434;2022-12-29T08:58:43;98347.13;;;10.29;86.62
16664;BME280;8445;51.270;9.434;2022-12-29T09:01:09;98353.91;;;10.31;85.86
16664;BME280;8445;51.270;9.434;2022-12-29T09:03:35;98363.50;;;10.32;86.53
16664;BME280;8445;51.270;9.434;2022-12-29T09:06:00;98353.78;;;10.33;85.95
16664;BME280;8445;51.270;9.434;2022-12-29T09:08:26;98367.53;;;10.36;85.58
16664;BME280;8445;51.270;9.434;2022-12-29T09:10:51;98389.53;;;10.37;85.43
16664;BME280;8445;51.270;9.434;2022-12-29T09:13:17;98378.28;;;10.35;85.15
16664;BME280;8445;51.270;9.434;2022-12-29T09:15:43;98360.75;;;10.34;85.91
16664;BME280;8445;51.270;9.434;2022-12-29T09:18:10;98363.09;;;10.37;86.81
16664;BME280;8445;51.270;9.434;2022-12-29T09:20:35;98382.47;;;10.47;86.96
16664;BME280;8445;51.270;9.434;2022-12-29T09:23:02;98373.13;;;10.53;87.18
16664;BME280;8445;51.270;9.434;2022-12-29T09:25:27;98367.41;;;10.67;87.16
16664;BME280;8445;51.270;9.434;2022-12-29T09:27:53;98377.69;;;10.80;87.26
16664;BME280;8445;51.270;9.434;2022-12-29T09:30:21;98384.03;;;10.97;86.93
16664;BME280;8445;51.270;9.434;2022-12-29T09:32:48;98378.44;;;11.10;86.40
16664;BME280;8445;51.270;9.434;2022-12-29T09:35:14;98373.19;;;11.29;86.06
16664;BME280;8445;51.270;9.434;2022-12-29T09:37:40;98379.41;;;11.47;85.75
16664;BME280;8445;51.270;9.434;2022-12-29T09:40:07;98391.03;;;11.54;85.59
16664;BME280;8445;51.270;9.434;2022-12-29T09:42:43;98390.81;;;11.48;85.45
16664;BME280;8445;51.270;9.434;2022-12-29T09:45:15;98390.22;;;11.54;85.15
16664;BME280;8445;51.270;9.434;2022-12-29T09:47:43;98401.84;;;11.71;84.80
16664;BME280;8445;51.270;9.434;2022-12-29T09:50:23;98395.28;;;11.93;83.81
16664;BME280;8445;51.270;9.434;2022-12-29T09:52:58;98391.16;;;12.09;83.98
16664;BME280;8445;51.270;9.434;2022-12-29T09:55:36;98390.09;;;12.20;81.25
16664;BME280;8445;51.270;9.434;2022-12-29T09:58:12;98387.06;;;12.14;81.32
16664;BME280;8445;51.270;9.434;2022-12-29T10:03:47;98391.31;;;12.07;81.05
16664;BME280;8445;51.270;9.434;2022-12-29T10:08:58;98389.47;;;12.44;82.78
16664;BME280;8445;51.270;9.434;2022-12-29T10:14:22;98384.88;;;12.99;78.12
16664;BME280;8445;51.270;9.434;2022-12-29T10:17:10;98375.53;;;13.13;77.04
16664;BME280;8445;51.270;9.434;2022-12-29T10:22:35;98383.28;;;12.80;80.47
16664;BME280;8445;51.270;9.434;2022-12-29T10:25:12;98382.72;;;12.68;80.46
16664;BME280;8445;51.270;9.434;2022-12-29T10:27:40;98391.47;;;12.60;80.05
16664;BME280;8445;51.270;9.434;2022-12-29T10:30:11;98385.97;;;12.62;78.29
16664;BME280;8445;51.270;9.434;2022-12-29T10:32:43;98386.84;;;12.70;80.10
16664;BME280;8445;51.270;9.434;2022-12-29T10:35:21;98386.31;;;12.85;75.86
16664;BME280;8445;51.270;9.434;2022-12-29T10:38:01;98388.53;;;12.98;75.72
16664;BME280;8445;51.270;9.434;2022-12-29T10:40:42;98395.06;;;13.03;78.38
16664;BME280;8445;51.270;9.434;2022-12-29T10:43:27;98389.25;;;13.08;78.93
16664;BME280;8445;51.270;9.434;2022-12-29T10:46:05;98390.72;;;13.02;75.92
16664;BME280;8445;51.270;9.434;2022-12-29T10:48:35;98385.69;;;12.91;77.81
16664;BME280;8445;51.270;9.434;2022-12-29T10:51:09;98393.34;;;12.94;78.93
16664;BME280;8445;51.270;9.434;2022-12-29T10:53:45;98388.00;;;13.20;76.03
16664;BME280;8445;51.270;9.434;2022-12-29T10:56:40;98381.22;;;13.26;73.33
16664;BME280;8445;51.270;9.434;2022-12-29T10:59:24;98377.03;;;13.15;78.70
16664;BME280;8445;51.270;9.434;2022-12-29T11:02:06;98379.50;;;13.09;79.29
16664;BME280;8445;51.270;9.434;2022-12-29T11:07:21;98384.69;;;13.18;77.87
16664;BME280;8445;51.270;9.434;2022-12-29T11:09:51;98390.72;;;13.29;77.64
16664;BME280;8445;51.270;9.434;2022-12-29T11:12:26;98383.38;;;13.23;77.83
16664;BME280;8445;51.270;9.434;2022-12-29T11:17:51;98384.75;;;13.35;72.32
16664;BME280;8445;51.270;9.434;2022-12-29T11:20:31;98376.88;;;13.43;70.54
16664;BME280;8445;51.270;9.434;2022-12-29T11:22:57;98372.59;;;13.59;76.00
16664;BME280;8445;51.270;9.434;2022-12-29T11:25:31;98378.94;;;13.74;75.96
16664;BME280;8445;51.270;9.434;2022-12-29T11:28:04;98377.28;;;13.73;76.00
16664;BME280;8445;51.270;9.434;2022-12-29T11:30:39;98380.88;;;13.56;75.85
16664;BME280;8445;51.270;9.434;2022-12-29T11:33:04;98383.53;;;13.47;76.41
16664;BME280;8445;51.270;9.434;2022-12-29T11:35:41;98392.94;;;13.42;72.25
16664;BME280;8445;51.270;9.434;2022-12-29T11:38:20;98386.06;;;13.31;69.83
16664;BME280;8445;51.270;9.434;2022-12-29T11:40:47;98390.19;;;13.52;75.81
16664;BME280;8445;51.270;9.434;2022-12-29T11:43:38;98383.03;;;13.52;69.19
16664;BME280;8445;51.270;9.434;2022-12-29T11:46:05;98401.50;;;13.62;74.46
16664;BME280;8445;51.270;9.434;2022-12-29T11:48:39;98393.41;;;13.72;71.65
16664;BME280;8445;51.270;9.434;2022-12-29T11:51:06;98394.41;;;13.71;73.67
16664;BME280;8445;51.270;9.434;2022-12-29T11:53:39;98399.50;;;13.64;71.01
16664;BME280;8445;51.270;9.434;2022-12-29T11:56:13;98404.47;;;13.59;73.24
16664;BME280;8445;51.270;9.434;2022-12-29T11:58:40;98395.16;;;13.55;73.63
16664;BME280;8445;51.270;9.434;2022-12-29T12:01:22;98401.31;;;13.55;73.20
16664;BME280;8445;51.270;9.434;2022-12-29T12:04:03;98405.13;;;13.53;72.17
16664;BME280;8445;51.270;9.434;2022-12-29T12:06:43;98402.47;;;13.53;72.80
16664;BME280;8445;51.270;9.434;2022-12-29T12:09:31;98411.09;;;13.55;65.77
16664;BME280;8445;51.270;9.434;2022-12-29T12:12:00;98408.78;;;13.60;70.56
16664;BME280;8445;51.270;9.434;2022-12-29T12:14:46;98404.25;;;13.44;65.14
16664;BME280;8445;51.270;9.434;2022-12-29T12:18:17;98417.38;;;13.45;65.25
16664;BME280;8445;51.270;9.434;2022-12-29T12:20:45;98423.00;;;13.42;68.55
16664;BME280;8445;51.270;9.434;2022-12-29T12:26:18;98423.31;;;13.39;69.76
16664;BME280;8445;51.270;9.434;2022-12-29T12:28:54;98414.94;;;13.26;71.24
16664;BME280;8445;51.270;9.434;2022-12-29T12:34:16;98417.78;;;13.06;71.53
16664;BME280;8445;51.270;9.434;2022-12-29T12:39:40;98421.72;;;12.94;67.42
16664;BME280;8445;51.270;9.434;2022-12-29T12:45:14;98420.94;;;13.01;68.29
16664;BME280;8445;51.270;9.434;2022-12-29T12:48:22;98424.72;;;12.99;69.44
16664;BME280;8445;51.270;9.434;2022-12-29T12:54:16;98428.78;;;12.85;71.80
16664;BME280;8445;51.270;9.434;2022-12-29T13:02:23;98430.22;;;12.79;67.36
16664;BME280;8445;51.270;9.434;2022-12-29T13:05:21;98425.00;;;12.87;66.56
16664;BME280;8445;51.270;9.434;2022-12-29T13:10:50;98429.72;;;13.02;70.16
16664;BME280;8445;51.270;9.434;2022-12-29T13:16:05;98439.03;;;13.06;72.10
16664;BME280;8445;51.270;9.434;2022-12-29T13:21:45;98432.34;;;13.28;69.33
16664;BME280;8445;51.270;9.434;2022-12-29T13:27:00;98439.44;;;13.19;70.01
16664;BME280;8445;51.270;9.434;2022-12-29T13:29:54;98438.56;;;13.11;67.01
16664;BME280;8445;51.270;9.434;2022-12-29T13:35:10;98445.94;;;12.99;66.46
16664;BME280;8445;51.270;9.434;2022-12-29T13:37:52;98445.91;;;12.90;69.65
16664;BME280;8445;51.270;9.434;2022-12-29T13:40:24;98446.59;;;12.74;71.65
16664;BME280;8445;51.270;9.434;2022-12-29T13:42:52;98452.31;;;12.62;71.33
16664;BME280;8445;51.270;9.434;2022-12-29T13:45:21;98458.22;;;12.55;72.16
16664;BME280;8445;51.270;9.434;2022-12-29T13:47:57;98460.78;;;12.47;72.06
16664;BME280;8445;51.270;9.434;2022-12-29T13:50:27;98472.31;;;12.38;72.10
16664;BME280;8445;51.270;9.434;2022-12-29T13:55:46;98481.47;;;12.25;71.98
16664;BME280;8445;51.270;9.434;2022-12-29T14:03:52;98483.34;;;12.15;72.19
16664;BME280;8445;51.270;9.434;2022-12-29T14:06:32;98499.31;;;12.05;70.48
16664;BME280;8445;51.270;9.434;2022-12-29T14:09:03;98501.97;;;11.95;72.12
16664;BME280;8445;51.270;9.434;2022-12-29T14:11:32;98501.06;;;11.86;72.00
16664;BME280;8445;51.270;9.434;2022-12-29T14:13:59;98507.38;;;11.76;72.27
16664;BME280;8445;51.270;9.434;2022-12-29T14:16:35;98510.31;;;11.73;72.56
16664;BME280;8445;51.270;9.434;2022-12-29T14:19:25;98507.13;;;11.69;72.04
16664;BME280;8445;51.270;9.434;2022-12-29T14:22:25;98496.41;;;11.61;71.40
16664;BME280;8445;51.270;9.434;2022-12-29T14:24:51;98510.09;;;11.56;72.28
16664;BME280;8445;51.270;9.434;2022-12-29T14:29:43;98514.31;;;11.49;72.03
16664;BME280;8445;51.270;9.434;2022-12-29T14:34:57;98515.53;;;11.54;72.07
16664;BME280;8445;51.270;9.434;2022-12-29T14:39:48;98522.09;;;11.50;72.08
16664;BME280;8445;51.270;9.434;2022-12-29T14:42:15;98518.50;;;11.41;71.49
16664;BME280;8445;51.270;9.434;2022-12-29T14:44:50;98530.50;;;11.36;71.57
16664;BME280;8445;51.270;9.434;2022-12-29T14:47:38;98539.16;;;11.28;71.12
16664;BME280;8445;51.270;9.434;2022-12-29T14:50:07;98539.44;;;11.25;71.62
16664;BME280;8445;51.270;9.434;2022-12-29T14:57:42;98541.97;;;11.07;71.07
16664;BME280;8445;51.270;9.434;2022-12-29T15:00:31;98541.53;;;11.02;70.93
16664;BME280;8445;51.270;9.434;2022-12-29T15:03:04;98542.97;;;10.96;69.62
16664;BME280;8445;51.270;9.434;2022-12-29T15:05:37;98559.09;;;10.93;70.14
16664;BME280;8445;51.270;9.434;2022-12-29T15:08:06;98559.22;;;10.91;71.06
16664;BME280;8445;51.270;9.434;2022-12-29T15:10:53;98560.50;;;10.87;70.46
16664;BME280;8445;51.270;9.434;2022-12-29T15:13:41;98563.13;;;10.77;70.37
16664;BME280;8445;51.270;9.434;2022-12-29T15:18:52;98573.41;;;10.61;70.86
16664;BME280;8445;51.270;9.434;2022-12-29T15:21:24;98574.81;;;10.55;70.75
16664;BME280;8445;51.270;9.434;2022-12-29T15:23:50;98581.47;;;10.49;70.52
16664;BME280;8445;51.270;9.434;2022-12-29T15:26:16;98587.38;;;10.32;70.23
16664;BME280;8445;51.270;9.434;2022-12-29T15:28:47;98588.19;;;10.22;70.31
16664;BME280;8445;51.270;9.434;2022-12-29T15:33:41;98591.44;;;10.05;69.99
16664;BME280;8445;51.270;9.434;2022-12-29T15:36:12;98596.00;;;9.93;70.18